createdAt,value
2022-09-24T00:00:29.651Z,29.50
2022-09-24T00:03:16.600Z,32.22
2022-09-24T00:05:56.676Z,30.33
2022-09-24T00:08:43.509Z,28.63
2022-09-24T00:11:30.529Z,27.88
2022-09-24T00:14:18.530Z,29.10
2022-09-24T00:16:58.633Z,22.65
2022-09-24T00:19:45.533Z,18.45
2022-09-24T00:22:25.673Z,15.40
2022-09-24T00:25:31.524Z,13.48
2022-09-24T00:28:11.754Z,11.15
2022-09-24T00:30:58.563Z,10.43
2022-09-24T00:33:38.581Z,11.05
2022-09-24T00:36:27.533Z,9.98
2022-09-24T00:39:07.575Z,10.10
2022-09-24T00:41:55.492Z,10.85
2022-09-24T00:44:47.571Z,14.15
2022-09-24T00:47:46.473Z,15.95
2022-09-24T00:50:47.503Z,16.65
2022-09-24T00:53:39.489Z,16.00
2022-09-24T00:56:28.508Z,15.82
2022-09-24T00:59:11.700Z,14.32
2022-09-24T01:02:05.523Z,14.15
2022-09-24T01:04:46.380Z,16.20
2022-09-24T01:07:33.449Z,14.85
2022-09-24T01:10:35.218Z,12.20
2022-09-24T01:13:53.489Z,12.00
2022-09-24T01:17:00.463Z,11.43
2022-09-24T01:19:47.426Z,9.73
2022-09-24T01:23:16.464Z,10.50
2022-09-24T01:26:43.416Z,10.00
2022-09-24T01:29:50.459Z,11.70
2022-09-24T01:33:06.445Z,12.15
2022-09-24T01:36:01.450Z,11.35
2022-09-24T01:38:48.503Z,12.52
2022-09-24T01:41:36.441Z,11.27
2022-09-24T01:44:25.445Z,11.85
2022-09-24T01:47:08.228Z,11.15
2022-09-24T01:49:55.429Z,11.30
2022-09-24T01:52:49.364Z,10.45
2022-09-24T01:55:40.422Z,10.55
2022-09-24T01:58:39.387Z,10.05
2022-09-24T02:01:25.559Z,8.77
2022-09-24T02:04:19.378Z,9.02
2022-09-24T02:07:16.551Z,8.40
2022-09-24T02:10:03.376Z,7.63
2022-09-24T02:12:54.343Z,7.07
2022-09-24T02:15:45.399Z,7.10
2022-09-24T02:18:30.428Z,7.60
2022-09-24T02:21:20.346Z,6.60
2022-09-24T02:24:18.336Z,6.38
2022-09-24T02:27:06.380Z,6.57
2022-09-24T02:29:53.349Z,6.07
2022-09-24T02:32:43.343Z,6.53
2022-09-24T02:35:23.477Z,5.88
2022-09-24T02:38:11.348Z,6.90
2022-09-24T02:40:51.835Z,6.35
2022-09-24T02:43:39.347Z,7.57
2022-09-24T02:46:19.507Z,6.68
2022-09-24T02:49:06.338Z,7.28
2022-09-24T02:51:47.421Z,7.45
2022-09-24T02:54:34.323Z,7.47
2022-09-24T02:57:14.640Z,6.18
2022-09-24T03:00:01.303Z,6.28
2022-09-24T03:02:41.417Z,7.25
2022-09-24T03:05:28.284Z,7.55
2022-09-24T03:26:04.605Z,11.75
2022-09-24T03:28:45.448Z,9.35
2022-09-24T03:31:32.648Z,9.32
2022-09-24T03:34:19.559Z,10.70
2022-09-24T03:36:59.715Z,10.23
2022-09-24T03:39:46.572Z,10.52
2022-09-24T03:42:33.552Z,8.73
2022-09-24T03:45:20.573Z,8.38
2022-09-24T03:48:00.660Z,8.05
2022-09-24T03:50:47.544Z,8.35
2022-09-24T03:53:34.538Z,7.50
2022-09-24T03:56:15.682Z,6.93
2022-09-24T03:59:02.530Z,10.05
2022-09-24T04:01:42.974Z,7.72
2022-09-24T04:04:29.554Z,8.23
2022-09-24T04:07:09.945Z,10.15
2022-09-24T04:09:56.523Z,10.13
2022-09-24T04:12:37.152Z,12.73
2022-09-24T04:15:24.541Z,13.93
2022-09-24T04:18:11.645Z,14.50
2022-09-24T04:20:52.543Z,13.43
2022-09-24T04:23:39.508Z,14.60
2022-09-24T04:26:21.113Z,16.13
2022-09-24T04:29:07.489Z,16.75
2022-09-24T04:31:54.567Z,15.40
2022-09-24T04:34:34.856Z,14.85
2022-09-24T04:37:21.487Z,14.52
2022-09-24T04:40:05.920Z,11.30
2022-09-24T04:42:54.530Z,10.65
2022-09-24T04:45:41.498Z,8.60
2022-09-24T04:48:28.442Z,7.78
2022-09-24T04:51:09.224Z,6.05
2022-09-24T04:53:57.484Z,5.53
2022-09-24T04:56:44.425Z,4.65
2022-09-24T04:59:24.605Z,4.07
2022-09-24T05:02:13.485Z,4.43
2022-09-24T05:04:53.561Z,4.22
2022-09-24T05:07:40.423Z,4.47
2022-09-24T05:10:27.407Z,4.88
2022-09-24T05:13:14.462Z,3.97
2022-09-24T05:16:01.507Z,4.70
2022-09-24T05:18:48.448Z,5.60
2022-09-24T05:21:28.543Z,6.53
2022-09-24T05:24:15.435Z,6.97
2022-09-24T05:27:10.979Z,7.18
2022-09-24T05:29:57.450Z,5.28
2022-09-24T05:32:44.407Z,5.95
2022-09-24T05:35:31.433Z,5.70
2022-09-24T05:38:11.497Z,5.65
2022-09-24T05:40:58.504Z,5.55
2022-09-24T05:43:45.434Z,6.10
2022-09-24T05:46:32.469Z,5.80
2022-09-24T05:49:12.527Z,5.72
2022-09-24T05:51:59.409Z,5.38
2022-09-24T05:54:46.381Z,5.45
2022-09-24T05:57:33.372Z,6.22
2022-09-24T06:00:21.415Z,5.65
2022-09-24T06:03:23.491Z,5.45
2022-09-24T06:06:10.403Z,5.20
2022-09-24T06:08:51.061Z,6.35
2022-09-24T06:11:41.424Z,5.85
2022-09-24T06:14:28.370Z,6.30
2022-09-24T06:17:08.439Z,5.30
2022-09-24T06:19:55.373Z,5.72
2022-09-24T06:22:35.444Z,5.60
2022-09-24T06:25:22.338Z,6.00
2022-09-24T06:28:14.374Z,5.32
2022-09-24T06:30:54.825Z,5.30
2022-09-24T06:33:41.364Z,6.05
2022-09-24T06:36:21.697Z,6.05
2022-09-24T06:39:08.386Z,6.25
2022-09-24T06:41:50.425Z,6.15
2022-09-24T06:44:37.352Z,5.15
2022-09-24T06:47:24.331Z,6.25
2022-09-24T06:50:04.493Z,5.85
2022-09-24T06:52:51.355Z,4.55
2022-09-24T06:55:31.395Z,4.70
2022-09-24T06:58:21.369Z,3.45
2022-09-24T07:01:03.564Z,2.25
2022-09-24T07:03:50.333Z,1.90
2022-09-24T07:06:50.327Z,2.70
2022-09-24T07:09:37.309Z,1.98
2022-09-24T07:12:24.333Z,1.70
2022-09-24T07:15:05.229Z,1.88
2022-09-24T07:17:52.301Z,2.30
2022-09-24T07:20:43.318Z,1.75
2022-09-24T07:23:23.449Z,1.48
2022-09-24T07:26:10.311Z,1.77
2022-09-24T07:28:50.418Z,2.25
2022-09-24T07:31:37.354Z,1.70
2022-09-24T07:34:17.396Z,1.95
2022-09-24T07:37:04.304Z,2.40
2022-09-24T07:39:52.285Z,2.10
2022-09-24T07:42:32.677Z,2.10
2022-09-24T07:45:19.267Z,1.98
2022-09-24T07:48:08.297Z,1.13
2022-09-24T07:50:49.767Z,2.05
2022-09-24T07:53:36.229Z,2.15
2022-09-24T07:56:23.261Z,2.10
2022-09-24T07:59:13.223Z,1.50
2022-09-24T08:01:53.939Z,2.30
2022-09-24T08:04:40.213Z,1.95
2022-09-24T08:07:27.264Z,1.40
2022-09-24T08:10:15.259Z,2.70
2022-09-24T08:12:57.075Z,1.48
2022-09-24T08:15:44.291Z,1.58
2022-09-24T08:18:31.249Z,1.65
2022-09-24T08:21:13.364Z,1.55
2022-09-24T08:24:00.432Z,1.65
2022-09-24T08:26:47.343Z,1.42
2022-09-24T08:29:27.251Z,1.55
2022-09-24T08:32:07.712Z,1.70
2022-09-24T08:34:54.228Z,1.83
2022-09-24T08:37:34.678Z,1.60
2022-09-24T08:40:31.248Z,1.90
2022-09-24T08:43:52.240Z,2.25
2022-09-24T08:47:13.265Z,1.70
2022-09-24T08:50:39.220Z,1.42
2022-09-24T08:53:45.236Z,1.17
2022-09-24T08:56:31.326Z,1.85
2022-09-24T08:59:31.176Z,1.42
2022-09-24T09:02:27.471Z,1.85
2022-09-24T09:05:38.192Z,2.35
2022-09-24T09:08:50.356Z,3.20
2022-09-24T09:11:40.213Z,3.22
2022-09-24T09:14:41.755Z,1.48
2022-09-24T09:17:38.149Z,1.73
2022-09-24T09:20:34.198Z,1.83
2022-09-24T09:23:33.286Z,1.73
2022-09-24T09:26:25.171Z,1.08
2022-09-24T09:29:06.387Z,1.38
2022-09-24T09:32:12.125Z,1.80
2022-09-24T09:34:59.163Z,1.35
2022-09-24T09:37:58.149Z,1.92
2022-09-24T09:41:00.280Z,1.77
2022-09-24T09:43:41.800Z,2.13
2022-09-24T09:46:38.206Z,2.95
2022-09-24T09:49:18.581Z,1.83
2022-09-24T09:52:10.197Z,1.88
2022-09-24T09:54:52.205Z,0.95
2022-09-24T09:57:39.166Z,1.00
2022-09-24T10:00:35.262Z,1.20
2022-09-24T10:04:09.351Z,1.20
2022-09-24T10:06:57.164Z,1.48
2022-09-24T10:09:38.371Z,0.73
2022-09-24T10:12:31.164Z,1.15
2022-09-24T10:15:22.276Z,1.05
2022-09-24T10:18:09.183Z,1.33
2022-09-24T10:20:54.618Z,1.05
2022-09-24T10:23:46.177Z,2.10
2022-09-24T10:26:33.148Z,1.10
2022-09-24T10:29:38.235Z,0.90
2022-09-24T10:32:34.121Z,1.60
2022-09-24T10:35:47.143Z,1.23
2022-09-24T10:38:31.724Z,1.50
2022-09-24T10:41:36.132Z,1.00
2022-09-24T10:44:18.244Z,0.95
2022-09-24T10:47:33.111Z,0.90
2022-09-24T10:50:30.186Z,0.98
2022-09-24T10:53:26.099Z,0.75
2022-09-24T10:56:28.119Z,0.80
2022-09-24T10:59:28.087Z,0.93
2022-09-24T11:02:27.142Z,1.40
2022-09-24T11:05:21.572Z,0.80
2022-09-24T11:08:36.093Z,0.85
2022-09-24T11:11:46.177Z,1.00
2022-09-24T11:15:21.992Z,1.38
2022-09-24T11:18:43.062Z,1.50
2022-09-24T11:26:58.102Z,1.45
2022-09-24T11:30:13.478Z,1.00
2022-09-24T11:33:52.372Z,1.08
2022-09-24T11:43:51.051Z,1.05
2022-09-24T11:47:14.078Z,2.17
2022-09-24T11:50:09.051Z,0.93
2022-09-24T11:53:04.054Z,1.67
2022-09-24T11:56:29.771Z,0.80
2022-09-24T12:04:05.090Z,0.75
2022-09-24T12:07:00.993Z,1.10
2022-09-24T12:10:04.990Z,0.50
2022-09-24T12:12:50.202Z,1.23
2022-09-24T12:15:34.027Z,1.00
2022-09-24T12:18:57.030Z,1.30
2022-09-24T12:21:48.012Z,0.68
2022-09-24T12:24:41.024Z,1.30
2022-09-24T12:27:45.012Z,1.10
2022-09-24T12:31:00.243Z,1.60
2022-09-24T12:34:09.025Z,1.45
2022-09-24T12:37:05.987Z,1.30
2022-09-24T12:39:57.728Z,1.05
2022-09-24T12:42:57.012Z,1.00
2022-09-24T12:45:37.089Z,0.90
2022-09-24T12:48:31.992Z,0.90
2022-09-24T12:51:21.010Z,1.63
2022-09-24T12:54:34.992Z,0.90
2022-09-24T12:57:27.057Z,0.75
2022-09-24T13:00:38.948Z,1.45
2022-09-24T13:03:37.109Z,1.15
2022-09-24T13:06:43.944Z,1.08
2022-09-24T13:09:42.947Z,1.80
2022-09-24T13:12:33.249Z,0.82
2022-09-24T13:15:35.056Z,1.67
2022-09-24T13:18:25.130Z,1.10
2022-09-24T13:21:17.962Z,0.85
2022-09-24T13:23:58.464Z,1.30
2022-09-24T13:26:46.899Z,1.00
2022-09-24T13:29:44.963Z,0.93
2022-09-24T13:32:35.943Z,2.65
2022-09-24T13:35:29.364Z,0.82
2022-09-24T13:38:30.919Z,1.30
2022-09-24T13:41:32.897Z,1.40
2022-09-24T13:44:29.999Z,1.50
2022-09-24T13:47:49.939Z,1.40
2022-09-24T13:50:38.894Z,1.25
2022-09-24T13:53:45.349Z,1.08
2022-09-24T13:56:32.926Z,1.20
2022-09-24T13:59:17.998Z,1.00
2022-09-24T14:02:04.926Z,1.30
2022-09-24T14:04:52.916Z,1.30
2022-09-24T14:07:39.987Z,1.20
2022-09-24T14:10:20.973Z,0.93
2022-09-24T14:13:30.953Z,1.00
2022-09-24T14:16:16.307Z,1.10
2022-09-24T14:19:12.915Z,1.33
2022-09-24T14:22:03.875Z,1.30
2022-09-24T14:24:59.886Z,1.10
2022-09-24T14:28:01.887Z,1.10
2022-09-24T14:30:55.534Z,1.15
2022-09-24T14:33:46.899Z,1.50
2022-09-24T14:36:29.318Z,1.23
2022-09-24T14:39:18.889Z,1.33
2022-09-24T14:41:59.322Z,1.50
2022-09-24T14:44:45.842Z,0.93
2022-09-24T14:47:29.086Z,0.95
2022-09-24T14:50:16.815Z,1.05
2022-09-24T14:53:04.870Z,1.40
2022-09-24T14:55:49.793Z,1.00
2022-09-24T14:58:36.847Z,1.17
2022-09-24T15:01:32.927Z,2.10
2022-09-24T15:04:29.862Z,1.10
2022-09-24T15:07:09.916Z,1.50
2022-09-24T15:10:02.969Z,1.08
2022-09-24T15:28:03.505Z,1.63
2022-09-24T15:30:44.924Z,1.20
2022-09-24T15:33:31.470Z,1.45
2022-09-24T15:36:18.487Z,1.83
2022-09-24T15:39:06.522Z,1.50
2022-09-24T15:41:47.055Z,2.08
2022-09-24T15:44:39.519Z,1.83
2022-09-24T15:47:26.567Z,1.33
2022-09-24T15:50:06.520Z,2.03
2022-09-24T15:52:51.597Z,3.50
2022-09-24T15:55:38.462Z,2.55
2022-09-24T15:58:19.744Z,3.20
2022-09-24T16:01:06.492Z,3.00
2022-09-24T16:03:46.910Z,2.78
2022-09-24T16:06:33.477Z,3.08
2022-09-24T16:09:20.499Z,2.92
2022-09-24T16:12:01.073Z,2.28
2022-09-24T16:14:47.464Z,2.33
2022-09-24T16:17:27.672Z,2.67
2022-09-24T16:20:16.458Z,2.50
2022-09-24T16:22:56.555Z,2.92
2022-09-24T16:25:43.465Z,2.92
2022-09-24T16:28:30.477Z,3.20
2022-09-24T16:31:10.862Z,3.55
2022-09-24T16:33:57.424Z,3.30
2022-09-24T16:36:38.332Z,4.93
2022-09-24T16:39:26.441Z,5.63
2022-09-24T16:42:06.795Z,6.60
2022-09-24T16:44:56.410Z,3.63
2022-09-24T16:47:43.451Z,2.10
2022-09-24T16:50:33.406Z,3.90
2022-09-24T16:53:13.759Z,2.95
2022-09-24T16:56:00.429Z,2.75
2022-09-24T16:58:57.429Z,3.95
2022-09-24T17:01:46.590Z,3.13
2022-09-24T17:04:34.259Z,2.22
2022-09-24T17:07:14.811Z,2.13
2022-09-24T17:10:19.442Z,2.17
2022-09-24T17:13:07.527Z,2.78
2022-09-24T17:15:47.650Z,1.33
2022-09-24T17:18:34.399Z,2.10
2022-09-24T17:21:18.075Z,2.58
2022-09-24T17:24:04.373Z,1.50
2022-09-24T17:26:58.406Z,1.73
2022-09-24T17:29:38.746Z,1.90
2022-09-24T17:32:25.391Z,1.85
2022-09-24T17:35:07.932Z,2.35
2022-09-24T17:37:54.380Z,5.65
2022-09-24T17:40:34.779Z,2.00
2022-09-24T17:43:21.355Z,2.17
2022-09-24T17:46:13.875Z,2.03
2022-09-24T17:48:59.561Z,1.88
2022-09-24T17:51:46.309Z,1.63
2022-09-24T17:54:33.343Z,2.33
2022-09-24T17:57:21.248Z,1.73
2022-09-24T18:00:01.348Z,2.47
2022-09-24T18:02:51.372Z,2.45
2022-09-24T18:05:31.491Z,2.78
2022-09-24T18:08:18.323Z,2.03
2022-09-24T18:11:15.316Z,2.67
2022-09-24T18:14:12.326Z,2.30
2022-09-24T18:16:52.932Z,1.77
2022-09-24T18:19:39.366Z,2.20
2022-09-24T18:22:26.336Z,2.53
2022-09-24T18:25:07.227Z,2.10
2022-09-24T18:27:54.310Z,1.98
2022-09-24T18:30:34.413Z,3.08
2022-09-24T18:33:22.325Z,2.13
2022-09-24T18:36:09.310Z,3.03
2022-09-24T18:38:49.882Z,2.80
2022-09-24T18:41:42.546Z,2.50
2022-09-24T18:44:22.714Z,3.30
2022-09-24T18:47:09.437Z,2.55
2022-09-24T18:49:56.293Z,3.13
2022-09-24T18:52:43.328Z,3.28
2022-09-24T18:55:23.666Z,3.17
2022-09-24T18:58:12.294Z,3.97
2022-09-24T19:01:04.409Z,3.40
2022-09-24T19:03:46.269Z,2.17
2022-09-24T19:06:28.134Z,2.83
2022-09-24T19:09:15.256Z,3.50
2022-09-24T19:11:56.085Z,2.97
2022-09-24T19:14:43.244Z,2.47
2022-09-24T19:17:23.936Z,2.85
2022-09-24T19:20:11.327Z,2.22
2022-09-24T19:22:59.941Z,2.40
2022-09-24T19:25:50.230Z,2.45
2022-09-24T19:28:37.382Z,1.80
2022-09-24T19:31:43.276Z,1.80
2022-09-24T19:34:23.712Z,3.20
2022-09-24T19:37:10.262Z,2.08
2022-09-24T19:39:51.007Z,1.55
2022-09-24T19:42:38.219Z,1.65
2022-09-24T19:45:18.662Z,1.83
2022-09-24T19:48:06.225Z,2.17
2022-09-24T19:50:46.625Z,2.20
2022-09-24T19:53:34.210Z,3.05
2022-09-24T19:56:23.285Z,2.50
2022-09-24T19:59:12.204Z,2.88
2022-09-24T20:01:52.700Z,2.28
2022-09-24T20:04:41.205Z,2.30
2022-09-24T20:07:28.215Z,2.88
2022-09-24T20:10:08.325Z,2.63
2022-09-24T20:12:58.194Z,3.03
2022-09-24T20:15:45.233Z,2.78
2022-09-24T20:18:25.969Z,2.72
2022-09-24T20:21:19.228Z,3.05
2022-09-24T20:24:08.304Z,3.53
2022-09-24T20:27:06.735Z,3.60
2022-09-24T20:29:55.179Z,2.83
2022-09-24T20:32:35.287Z,3.60
2022-09-24T20:35:22.203Z,3.38
2022-09-24T20:38:02.308Z,3.38
2022-09-24T20:40:50.184Z,3.42
2022-09-24T20:43:32.166Z,3.78
2022-09-24T20:46:23.221Z,4.40
2022-09-24T20:49:13.166Z,4.53
2022-09-24T20:51:57.386Z,4.65
2022-09-24T20:54:44.094Z,4.15
2022-09-24T20:57:31.167Z,3.60
2022-09-24T21:00:14.506Z,3.75
2022-09-24T21:03:10.735Z,3.85
2022-09-24T21:06:13.147Z,2.80
2022-09-24T21:09:00.142Z,2.45
2022-09-24T21:11:48.138Z,3.10
2022-09-24T21:14:28.980Z,3.03
2022-09-24T21:17:17.104Z,2.50
2022-09-24T21:20:04.674Z,2.58
2022-09-24T21:22:45.162Z,2.28
2022-09-24T21:25:52.361Z,2.30
2022-09-24T21:28:32.145Z,3.03
2022-09-24T21:31:14.097Z,2.17
2022-09-24T21:34:03.138Z,2.30
2022-09-24T21:36:52.224Z,2.88
2022-09-24T21:39:32.209Z,3.17
2022-09-24T21:42:19.101Z,3.38
2022-09-24T21:44:59.156Z,2.90
2022-09-24T21:47:46.101Z,4.55
2022-09-24T21:50:26.764Z,4.22
2022-09-24T21:53:15.079Z,3.65
2022-09-24T21:55:55.166Z,2.50
2022-09-24T21:58:42.087Z,2.30
2022-09-24T22:01:28.325Z,2.13
2022-09-24T22:04:15.086Z,2.42
2022-09-24T22:06:55.222Z,1.85
2022-09-24T22:09:42.017Z,2.33
2022-09-24T22:12:29.043Z,2.35
2022-09-24T22:15:17.042Z,2.40
2022-09-24T22:18:04.024Z,2.42
2022-09-24T22:20:51.107Z,2.70
2022-09-24T22:23:31.174Z,1.90
2022-09-24T22:26:20.054Z,2.97
2022-09-24T22:29:08.150Z,2.83
2022-09-24T22:31:48.014Z,2.85
2022-09-24T22:34:47.218Z,2.30
2022-09-24T22:37:34.024Z,2.58
2022-09-24T22:40:22.097Z,2.90
2022-09-24T22:43:02.081Z,2.47
2022-09-24T22:45:50.040Z,2.80
2022-09-24T22:48:30.131Z,3.00
2022-09-24T22:51:16.977Z,2.97
2022-09-24T22:54:04.113Z,2.65
2022-09-24T22:56:50.994Z,3.00
2022-09-24T22:59:37.995Z,3.20
2022-09-24T23:02:24.950Z,2.72
2022-09-24T23:05:12.050Z,2.50
2022-09-24T23:07:58.984Z,3.25
2022-09-24T23:10:39.078Z,3.28
2022-09-24T23:13:25.980Z,2.85
2022-09-24T23:16:15.093Z,2.72
2022-09-24T23:19:03.980Z,2.50
2022-09-24T23:21:44.228Z,3.15
2022-09-24T23:24:30.983Z,2.10
2022-09-24T23:27:24.959Z,2.70
2022-09-24T23:30:06.031Z,4.00
2022-09-24T23:32:52.941Z,3.10
2022-09-24T23:35:33.311Z,3.58
2022-09-24T23:38:19.942Z,3.75
2022-09-24T23:41:00.790Z,3.83
2022-09-24T23:43:47.937Z,3.15
2022-09-24T23:46:34.979Z,3.35
2022-09-24T23:49:22.040Z,3.40
2022-09-24T23:52:08.956Z,4.30
2022-09-24T23:54:55.879Z,4.28
2022-09-24T23:57:36.334Z,3.65
